createdAt,value
2023-01-06T00:02:02.476Z,86.19
2023-01-06T00:04:28.904Z,85.21
2023-01-06T00:06:55.315Z,85.93
2023-01-06T00:09:21.682Z,85.98
2023-01-06T00:11:48.072Z,86.13
2023-01-06T00:14:15.227Z,86.24
2023-01-06T00:16:41.590Z,86.41
2023-01-06T00:19:10.677Z,86.57
2023-01-06T00:21:37.024Z,86.02
2023-01-06T00:24:03.470Z,85.74
2023-01-06T00:26:30.049Z,86.29
2023-01-06T00:28:57.124Z,86.66
2023-01-06T00:31:23.845Z,85.86
2023-01-06T00:33:50.663Z,86.26
2023-01-06T00:36:17.321Z,86.28
2023-01-06T00:38:43.878Z,86.27
2023-01-06T00:41:31.581Z,84.23
2023-01-06T00:43:58.917Z,85.32
2023-01-06T00:46:28.878Z,85.22
2023-01-06T00:49:04.692Z,85.51
2023-01-06T00:51:31.637Z,85.98
2023-01-06T00:53:59.311Z,85.03
2023-01-06T00:56:25.683Z,84.15
2023-01-06T00:58:52.069Z,84.68
2023-01-06T01:01:18.536Z,84.49
2023-01-06T01:03:44.932Z,84.81
2023-01-06T01:06:11.345Z,85.64
2023-01-06T01:08:37.838Z,85.85
2023-01-06T01:11:06.444Z,85.62
2023-01-06T01:13:33.519Z,86.27
2023-01-06T01:16:07.367Z,86.19
2023-01-06T01:18:33.826Z,86.32
2023-01-06T01:21:00.190Z,86.64
2023-01-06T01:23:26.889Z,86.67
2023-01-06T01:25:57.264Z,86.81
2023-01-06T01:28:23.736Z,87.07
2023-01-06T01:30:50.173Z,87.00
2023-01-06T01:33:16.934Z,87.37
2023-01-06T01:35:43.352Z,87.80
2023-01-06T01:38:09.913Z,87.90
2023-01-06T01:40:36.411Z,88.03
2023-01-06T01:43:02.747Z,88.09
2023-01-06T01:45:30.061Z,88.28
2023-01-06T01:48:07.038Z,88.17
2023-01-06T01:50:33.319Z,88.33
2023-01-06T01:53:25.065Z,87.96
2023-01-06T01:55:53.756Z,88.00
2023-01-06T01:58:24.280Z,88.56
2023-01-06T02:00:51.875Z,88.73
2023-01-06T02:03:19.950Z,88.51
2023-01-06T02:05:52.012Z,88.63
2023-01-06T02:08:40.167Z,88.34
2023-01-06T02:11:06.807Z,88.22
2023-01-06T02:13:35.542Z,88.39
2023-01-06T02:16:16.541Z,88.10
2023-01-06T02:18:53.435Z,88.27
2023-01-06T02:21:46.747Z,88.32
2023-01-06T02:24:48.730Z,87.51
2023-01-06T02:27:52.319Z,87.82
2023-01-06T02:31:04.856Z,87.98
2023-01-06T02:33:36.303Z,87.55
2023-01-06T02:36:14.938Z,86.76
2023-01-06T02:39:07.491Z,87.10
2023-01-06T02:41:43.526Z,86.83
2023-01-06T02:44:20.453Z,87.42
2023-01-06T02:47:13.987Z,87.16
2023-01-06T02:49:57.588Z,87.13
2023-01-06T02:52:42.203Z,87.31
2023-01-06T02:55:23.968Z,87.20
2023-01-06T02:58:01.741Z,86.97
2023-01-06T03:00:42.462Z,87.16
2023-01-06T03:03:13.881Z,86.81
2023-01-06T03:05:43.720Z,87.46
2023-01-06T03:08:17.360Z,87.07
2023-01-06T03:10:46.593Z,87.05
2023-01-06T03:13:20.991Z,86.87
2023-01-06T03:15:47.551Z,87.17
2023-01-06T03:18:13.955Z,86.87
2023-01-06T03:20:40.485Z,87.14
2023-01-06T03:23:07.279Z,86.86
2023-01-06T03:25:33.645Z,87.38
2023-01-06T03:28:00.033Z,87.24
2023-01-06T03:30:34.919Z,86.98
2023-01-06T03:33:18.554Z,87.07
2023-01-06T03:36:00.682Z,87.57
2023-01-06T03:38:47.498Z,87.17
2023-01-06T03:41:48.909Z,87.20
2023-01-06T03:44:33.251Z,87.31
2023-01-06T03:47:16.034Z,87.31
2023-01-06T03:49:53.734Z,87.30
2023-01-06T03:52:27.691Z,87.06
2023-01-06T03:55:00.773Z,86.91
2023-01-06T03:57:32.434Z,87.34
2023-01-06T04:00:04.821Z,87.22
2023-01-06T04:02:31.810Z,87.25
2023-01-06T04:05:11.171Z,87.30
2023-01-06T04:07:38.927Z,87.25
2023-01-06T04:10:06.489Z,87.07
2023-01-06T04:12:39.027Z,87.05
2023-01-06T04:15:06.598Z,87.13
2023-01-06T04:17:33.013Z,87.47
2023-01-06T04:19:59.527Z,87.52
2023-01-06T04:22:26.088Z,87.49
2023-01-06T04:24:52.443Z,87.24
2023-01-06T04:27:18.808Z,87.52
2023-01-06T04:29:45.153Z,87.75
2023-01-06T04:32:11.580Z,87.48
2023-01-06T04:34:37.957Z,87.69
2023-01-06T04:37:04.708Z,87.82
2023-01-06T04:39:31.068Z,88.07
2023-01-06T04:41:57.445Z,88.14
2023-01-06T04:44:23.811Z,87.80
2023-01-06T04:46:50.156Z,87.92
2023-01-06T04:49:16.592Z,87.88
2023-01-06T04:51:42.933Z,88.16
2023-01-06T04:54:09.284Z,87.87
2023-01-06T04:56:35.653Z,88.04
2023-01-06T04:59:02.103Z,88.07
2023-01-06T05:01:28.564Z,87.86
2023-01-06T05:03:55.151Z,88.37
2023-01-06T05:06:21.763Z,88.33
2023-01-06T05:08:48.169Z,88.12
2023-01-06T05:11:20.028Z,88.15
2023-01-06T05:13:46.470Z,88.12
2023-01-06T05:16:23.492Z,87.75
2023-01-06T05:18:50.197Z,87.69
2023-01-06T05:21:16.730Z,88.28
2023-01-06T05:23:43.149Z,87.97
2023-01-06T05:26:15.152Z,88.07
2023-01-06T05:28:41.508Z,87.87
2023-01-06T05:31:10.514Z,88.31
2023-01-06T05:33:37.536Z,88.61
2023-01-06T05:36:09.936Z,88.73
2023-01-06T05:38:36.311Z,88.73
2023-01-06T05:41:02.795Z,89.06
2023-01-06T05:43:29.403Z,89.37
2023-01-06T05:45:56.228Z,89.37
2023-01-06T05:48:25.878Z,89.87
2023-01-06T05:50:52.181Z,89.40
2023-01-06T05:53:18.583Z,89.14
2023-01-06T05:55:45.066Z,89.55
2023-01-06T05:58:11.504Z,89.80
2023-01-06T06:00:38.249Z,89.59
2023-01-06T06:03:04.606Z,90.02
2023-01-06T06:05:30.968Z,89.97
2023-01-06T06:07:57.366Z,89.90
2023-01-06T06:10:23.753Z,89.62
2023-01-06T06:12:53.271Z,89.54
2023-01-06T06:15:19.748Z,89.60
2023-01-06T06:17:46.176Z,89.65
2023-01-06T06:20:12.541Z,89.27
2023-01-06T06:22:38.902Z,89.40
2023-01-06T06:25:05.554Z,89.29
2023-01-06T06:27:31.963Z,89.30
2023-01-06T06:29:58.374Z,89.29
2023-01-06T06:32:24.746Z,88.84
2023-01-06T06:34:51.106Z,88.90
2023-01-06T06:37:17.683Z,89.21
2023-01-06T06:39:44.045Z,89.19
2023-01-06T06:42:10.413Z,88.75
2023-01-06T06:44:36.795Z,88.58
2023-01-06T06:47:03.158Z,88.81
2023-01-06T06:49:29.565Z,89.48
2023-01-06T06:51:55.927Z,89.60
2023-01-06T06:54:22.288Z,89.74
2023-01-06T06:56:48.749Z,90.34
2023-01-06T06:59:15.107Z,90.02
2023-01-06T07:01:41.591Z,90.20
2023-01-06T07:04:08.724Z,90.32
2023-01-06T07:06:35.200Z,90.45
2023-01-06T07:09:01.687Z,90.46
2023-01-06T07:11:28.072Z,90.33
2023-01-06T07:13:54.485Z,90.47
2023-01-06T07:16:23.114Z,90.37
2023-01-06T07:18:49.647Z,90.76
2023-01-06T07:21:16.005Z,90.75
2023-01-06T07:23:42.473Z,90.55
2023-01-06T07:26:09.667Z,90.32
2023-01-06T07:28:36.033Z,90.65
2023-01-06T07:31:02.758Z,90.85
2023-01-06T07:33:29.638Z,90.81
2023-01-06T07:35:56.969Z,91.40
2023-01-06T07:38:24.535Z,90.83
2023-01-06T07:40:51.048Z,90.84
2023-01-06T07:43:17.525Z,91.05
2023-01-06T07:45:46.580Z,90.83
2023-01-06T07:48:13.080Z,91.03
2023-01-06T07:50:39.434Z,90.90
2023-01-06T07:53:05.848Z,90.66
2023-01-06T07:55:32.554Z,90.97
2023-01-06T07:57:59.031Z,91.38
2023-01-06T08:00:25.794Z,90.84
2023-01-06T08:02:52.253Z,90.83
2023-01-06T08:05:18.615Z,90.93
2023-01-06T08:07:45.036Z,90.80
2023-01-06T08:10:11.457Z,90.89
2023-01-06T08:12:37.806Z,90.80
2023-01-06T08:15:04.966Z,90.72
2023-01-06T08:17:31.417Z,90.76
2023-01-06T08:19:58.109Z,90.76
2023-01-06T08:22:24.881Z,91.34
2023-01-06T08:24:51.241Z,91.27
2023-01-06T08:27:18.162Z,90.91
2023-01-06T08:29:44.526Z,91.09
2023-01-06T08:32:11.224Z,91.13
2023-01-06T08:34:37.966Z,90.93
2023-01-06T08:37:04.444Z,91.27
2023-01-06T08:39:30.883Z,90.98
2023-01-06T08:41:57.337Z,91.06
2023-01-06T08:44:23.689Z,91.04
2023-01-06T08:46:50.119Z,91.43
2023-01-06T08:49:16.531Z,91.33
2023-01-06T08:51:42.999Z,91.32
2023-01-06T08:54:09.375Z,90.94
2023-01-06T08:56:35.983Z,90.90
2023-01-06T08:59:04.321Z,90.97
2023-01-06T09:01:34.197Z,91.21
2023-01-06T09:04:01.965Z,90.81
2023-01-06T09:06:29.165Z,91.07
2023-01-06T09:08:57.161Z,90.52
2023-01-06T09:11:23.849Z,90.41
2023-01-06T09:13:50.938Z,90.36
2023-01-06T09:16:17.807Z,90.39
2023-01-06T09:18:49.399Z,90.44
2023-01-06T09:21:17.793Z,90.62
2023-01-06T09:23:44.813Z,90.64
2023-01-06T09:26:11.434Z,90.10
2023-01-06T09:28:37.794Z,89.88
2023-01-06T09:31:04.419Z,90.09
2023-01-06T09:33:30.827Z,90.42
2023-01-06T09:35:57.187Z,90.41
2023-01-06T09:38:23.577Z,90.30
2023-01-06T09:41:29.492Z,90.63
2023-01-06T09:44:09.345Z,90.20
2023-01-06T09:46:39.450Z,88.41
2023-01-06T09:49:27.600Z,88.79
2023-01-06T09:52:01.497Z,89.31
2023-01-06T09:54:42.558Z,89.03
2023-01-06T09:57:26.867Z,88.55
2023-01-06T09:59:59.788Z,88.40
2023-01-06T10:02:33.245Z,87.31
2023-01-06T10:04:59.685Z,87.42
2023-01-06T10:07:35.191Z,87.61
2023-01-06T10:10:07.478Z,87.99
2023-01-06T10:12:52.776Z,88.33
2023-01-06T10:15:46.467Z,88.18
2023-01-06T10:18:29.290Z,87.92
2023-01-06T10:21:14.077Z,87.72
2023-01-06T10:23:59.326Z,87.63
2023-01-06T10:26:36.955Z,87.67
2023-01-06T10:29:12.962Z,87.75
2023-01-06T10:31:41.172Z,87.77
2023-01-06T10:34:17.087Z,85.74
2023-01-06T10:36:46.146Z,86.17
2023-01-06T10:39:17.982Z,85.83
2023-01-06T10:41:52.215Z,86.16
2023-01-06T10:44:19.910Z,84.86
2023-01-06T10:46:48.742Z,84.83
2023-01-06T10:49:17.791Z,84.26
2023-01-06T10:51:53.723Z,83.94
2023-01-06T10:54:28.379Z,82.77
2023-01-06T10:57:06.533Z,81.89
2023-01-06T10:59:32.896Z,81.17
2023-01-06T11:01:59.434Z,80.39
2023-01-06T11:04:27.932Z,79.98
2023-01-06T11:06:58.001Z,79.96
2023-01-06T11:09:38.907Z,79.28
2023-01-06T11:12:26.925Z,78.12
2023-01-06T11:14:58.631Z,78.06
2023-01-06T11:17:26.131Z,78.05
2023-01-06T11:20:28.034Z,77.21
2023-01-06T11:22:54.409Z,77.36
2023-01-06T11:25:20.738Z,76.66
2023-01-06T11:27:48.312Z,76.65
2023-01-06T11:30:30.567Z,76.56
2023-01-06T11:32:57.149Z,76.28
2023-01-06T11:35:26.918Z,76.55
2023-01-06T11:37:59.947Z,76.24
2023-01-06T11:40:33.630Z,75.78
2023-01-06T11:43:06.769Z,76.44
2023-01-06T11:45:36.873Z,76.32
2023-01-06T11:48:07.148Z,76.25
2023-01-06T11:50:33.700Z,76.41
2023-01-06T11:53:03.264Z,76.04
2023-01-06T11:55:30.702Z,76.29
2023-01-06T11:58:03.029Z,76.14
2023-01-06T12:00:42.739Z,75.66
2023-01-06T12:03:37.329Z,75.39
2023-01-06T12:06:09.749Z,75.71
2023-01-06T12:08:49.317Z,74.80
2023-01-06T12:11:25.677Z,74.76
2023-01-06T12:14:08.737Z,74.67
2023-01-06T12:16:43.874Z,75.81
2023-01-06T12:19:18.127Z,78.41
2023-01-06T12:21:44.503Z,80.96
2023-01-06T12:24:15.331Z,82.29
2023-01-06T12:26:43.245Z,82.94
2023-01-06T12:29:18.236Z,82.89
2023-01-06T12:32:00.111Z,83.70
2023-01-06T12:34:36.646Z,83.56
2023-01-06T12:37:10.464Z,83.45
2023-01-06T12:40:14.172Z,82.97
2023-01-06T12:43:04.872Z,82.95
2023-01-06T12:45:59.348Z,83.37
2023-01-06T12:48:35.931Z,82.78
2023-01-06T12:51:16.495Z,82.65
2023-01-06T12:53:56.150Z,81.13
2023-01-06T12:56:41.638Z,80.96
2023-01-06T12:59:20.451Z,80.02
2023-01-06T13:01:56.202Z,78.23
2023-01-06T13:04:44.003Z,76.54
2023-01-06T13:07:29.113Z,76.75
2023-01-06T13:10:17.998Z,75.93
2023-01-06T13:12:44.344Z,75.95
2023-01-06T13:15:23.569Z,75.13
2023-01-06T13:18:12.057Z,74.21
2023-01-06T13:20:46.693Z,74.56
2023-01-06T13:23:40.664Z,73.51
2023-01-06T13:26:37.570Z,72.55
2023-01-06T13:29:36.535Z,72.45
2023-01-06T13:32:17.849Z,72.13
2023-01-06T13:35:03.308Z,73.02
2023-01-06T13:38:00.350Z,72.43
2023-01-06T13:40:29.670Z,72.58
2023-01-06T13:43:14.956Z,72.48
2023-01-06T13:45:44.987Z,71.83
2023-01-06T13:48:19.752Z,71.79
2023-01-06T13:50:46.163Z,71.96
2023-01-06T13:53:19.512Z,71.33
2023-01-06T13:55:46.483Z,70.77
2023-01-06T13:58:30.463Z,71.15
2023-01-06T14:01:07.463Z,70.93
2023-01-06T14:03:34.428Z,71.24
2023-01-06T14:06:02.473Z,70.35
2023-01-06T14:08:33.025Z,70.82
2023-01-06T14:11:06.573Z,70.30
2023-01-06T14:13:38.721Z,70.61
2023-01-06T14:16:07.580Z,70.81
2023-01-06T14:19:05.811Z,71.25
2023-01-06T14:21:32.204Z,70.99
2023-01-06T14:24:18.224Z,71.11
2023-01-06T14:27:07.078Z,71.55
2023-01-06T14:29:39.901Z,71.18
2023-01-06T14:32:26.717Z,71.61
2023-01-06T14:34:58.142Z,71.72
2023-01-06T14:37:29.319Z,71.23
2023-01-06T14:39:56.682Z,71.28
2023-01-06T14:42:32.143Z,70.97
2023-01-06T14:45:03.407Z,70.85
2023-01-06T14:47:42.768Z,71.66
2023-01-06T14:50:17.017Z,71.78
2023-01-06T14:52:54.403Z,71.01
2023-01-06T14:55:22.913Z,70.78
2023-01-06T14:57:51.326Z,70.43
2023-01-06T15:00:29.636Z,70.25
2023-01-06T15:02:58.817Z,70.33
2023-01-06T15:05:32.074Z,70.26
2023-01-06T15:08:04.790Z,70.38
2023-01-06T15:10:38.244Z,70.46
2023-01-06T15:13:19.901Z,69.50
2023-01-06T15:15:53.855Z,69.81
2023-01-06T15:18:20.321Z,69.47
2023-01-06T15:20:46.889Z,69.35
2023-01-06T15:23:19.783Z,69.98
2023-01-06T15:25:51.774Z,70.11
2023-01-06T15:28:24.862Z,69.89
2023-01-06T15:30:51.374Z,70.46
2023-01-06T15:33:20.480Z,70.39
2023-01-06T15:35:48.417Z,69.99
2023-01-06T15:38:27.128Z,70.50
2023-01-06T15:40:54.018Z,69.77
2023-01-06T15:43:24.362Z,69.62
2023-01-06T15:46:02.468Z,68.87
2023-01-06T15:48:32.291Z,69.21
2023-01-06T15:50:58.922Z,69.95
2023-01-06T15:53:32.392Z,69.16
2023-01-06T15:56:00.827Z,68.90
2023-01-06T15:58:31.919Z,69.40
2023-01-06T16:01:02.575Z,69.39
2023-01-06T16:03:31.182Z,70.01
2023-01-06T16:06:14.727Z,69.71
2023-01-06T16:08:42.665Z,69.66
2023-01-06T16:11:16.603Z,70.05
2023-01-06T16:13:49.026Z,70.18
2023-01-06T16:16:15.467Z,70.22
2023-01-06T16:18:43.759Z,70.74
2023-01-06T16:21:20.834Z,70.49
2023-01-06T16:23:49.867Z,70.88
2023-01-06T16:26:20.166Z,70.81
2023-01-06T16:28:52.536Z,71.73
2023-01-06T16:31:36.733Z,74.38
2023-01-06T16:34:21.518Z,76.11
2023-01-06T16:36:53.782Z,75.79
2023-01-06T16:39:20.290Z,75.61
2023-01-06T16:41:58.881Z,75.32
2023-01-06T16:44:29.646Z,75.55
2023-01-06T16:47:00.722Z,75.70
2023-01-06T16:49:29.572Z,75.03
2023-01-06T16:51:56.161Z,74.84
2023-01-06T16:54:23.402Z,74.76
2023-01-06T16:56:52.040Z,74.06
2023-01-06T16:59:20.300Z,73.81
2023-01-06T17:01:48.167Z,73.29
2023-01-06T17:04:17.839Z,73.60
2023-01-06T17:06:45.642Z,74.05
2023-01-06T17:09:22.962Z,73.69
2023-01-06T17:11:50.340Z,73.46
2023-01-06T17:14:19.379Z,73.46
2023-01-06T17:16:47.401Z,72.81
2023-01-06T17:19:24.738Z,73.35
2023-01-06T17:21:59.829Z,73.62
2023-01-06T17:24:30.518Z,73.73
2023-01-06T17:26:56.854Z,73.97
2023-01-06T17:29:24.240Z,74.38
2023-01-06T17:31:55.053Z,74.48
2023-01-06T17:34:33.661Z,74.64
2023-01-06T17:37:10.931Z,75.04
2023-01-06T17:39:40.061Z,75.27
2023-01-06T17:42:12.260Z,75.61
2023-01-06T17:44:51.586Z,75.66
2023-01-06T17:47:18.028Z,75.99
2023-01-06T17:49:49.372Z,76.74
2023-01-06T17:52:42.413Z,76.15
2023-01-06T17:55:27.411Z,76.01
2023-01-06T17:57:58.333Z,75.91
2023-01-06T18:00:31.740Z,75.85
2023-01-06T18:03:04.396Z,76.32
2023-01-06T18:05:32.685Z,75.78
2023-01-06T18:08:05.033Z,76.06
2023-01-06T18:10:36.130Z,75.90
2023-01-06T18:13:13.346Z,75.95
2023-01-06T18:15:39.781Z,75.89
2023-01-06T18:18:22.740Z,75.36
2023-01-06T18:21:03.212Z,75.33
2023-01-06T18:23:33.414Z,75.35
2023-01-06T18:26:04.084Z,75.52
2023-01-06T18:28:30.628Z,75.32
2023-01-06T18:30:59.035Z,75.31
2023-01-06T18:33:26.326Z,74.96
2023-01-06T18:35:57.260Z,75.37
2023-01-06T18:38:29.897Z,75.56
2023-01-06T18:40:56.313Z,75.50
2023-01-06T18:43:27.910Z,75.69
2023-01-06T18:45:57.963Z,75.41
2023-01-06T18:48:30.428Z,75.53
2023-01-06T18:50:58.739Z,75.77
2023-01-06T18:53:26.952Z,75.66
2023-01-06T18:56:14.347Z,75.78
2023-01-06T18:58:50.112Z,75.17
2023-01-06T19:01:50.176Z,75.60
2023-01-06T19:04:28.934Z,75.19
2023-01-06T19:07:24.752Z,75.35
2023-01-06T19:09:51.291Z,75.55
2023-01-06T19:12:32.654Z,75.32
2023-01-06T19:15:13.081Z,75.84
2023-01-06T19:17:41.467Z,75.47
2023-01-06T19:20:23.348Z,75.20
2023-01-06T19:22:50.269Z,75.00
2023-01-06T19:25:41.100Z,75.38
2023-01-06T19:28:22.457Z,75.58
2023-01-06T19:30:57.256Z,75.69
2023-01-06T19:33:40.915Z,75.90
2023-01-06T19:36:47.149Z,75.74
2023-01-06T19:39:47.498Z,75.43
2023-01-06T19:42:21.976Z,75.59
2023-01-06T19:44:52.112Z,74.91
2023-01-06T19:47:23.997Z,75.51
2023-01-06T19:49:53.890Z,75.47
2023-01-06T19:52:41.549Z,74.95
2023-01-06T19:55:19.599Z,75.80
2023-01-06T19:58:12.908Z,75.93
2023-01-06T20:00:49.844Z,75.81
2023-01-06T20:03:36.140Z,75.09
2023-01-06T20:06:04.432Z,76.02
2023-01-06T20:08:31.229Z,76.12
2023-01-06T20:10:58.004Z,75.42
2023-01-06T20:13:24.666Z,76.54
2023-01-06T20:15:51.326Z,76.41
2023-01-06T20:18:17.724Z,76.29
2023-01-06T20:20:44.439Z,76.24
2023-01-06T20:23:11.299Z,76.67
2023-01-06T20:25:37.751Z,76.47
2023-01-06T20:28:04.215Z,76.73
2023-01-06T20:30:30.711Z,76.74
2023-01-06T20:32:57.083Z,76.17
2023-01-06T20:35:23.693Z,76.34
2023-01-06T20:37:50.325Z,76.22
2023-01-06T20:40:18.418Z,76.06
2023-01-06T20:42:45.011Z,76.42
2023-01-06T20:45:12.244Z,76.33
2023-01-06T20:47:38.643Z,76.27
2023-01-06T20:50:12.675Z,76.23
2023-01-06T20:52:40.007Z,76.03
2023-01-06T20:55:06.599Z,76.13
2023-01-06T20:57:32.976Z,76.03
2023-01-06T20:59:59.377Z,75.84
2023-01-06T21:02:25.901Z,76.34
2023-01-06T21:04:52.490Z,76.19
2023-01-06T21:07:18.838Z,75.76
2023-01-06T21:09:45.259Z,76.08
2023-01-06T21:12:11.625Z,76.49
2023-01-06T21:14:38.019Z,76.45
2023-01-06T21:17:04.456Z,76.62
2023-01-06T21:19:31.016Z,76.39
2023-01-06T21:21:57.641Z,76.17
2023-01-06T21:24:25.283Z,76.74
2023-01-06T21:26:51.738Z,76.86
2023-01-06T21:29:18.171Z,76.85
2023-01-06T21:31:44.764Z,76.88
2023-01-06T21:34:11.301Z,76.47
2023-01-06T21:36:37.636Z,76.10
2023-01-06T21:39:07.150Z,76.38
2023-01-06T21:41:51.931Z,76.80
2023-01-06T21:44:18.301Z,76.61
2023-01-06T21:46:44.733Z,76.99
2023-01-06T21:51:58.480Z,77.24
2023-01-06T21:54:25.030Z,77.05
2023-01-06T21:56:51.487Z,77.24
2023-01-06T21:59:18.269Z,77.29
2023-01-06T22:01:44.689Z,77.42
2023-01-06T22:04:11.126Z,77.20
2023-01-06T22:06:40.256Z,77.35
2023-01-06T22:09:08.126Z,77.03
2023-01-06T22:11:38.027Z,77.41
2023-01-06T22:14:05.457Z,77.67
2023-01-06T22:16:32.752Z,77.25
2023-01-06T22:18:59.359Z,77.62
2023-01-06T22:21:26.233Z,77.48
2023-01-06T22:23:55.789Z,77.11
2023-01-06T22:26:22.289Z,77.53
2023-01-06T22:28:48.643Z,76.83
2023-01-06T22:31:15.326Z,76.80
2023-01-06T22:33:41.723Z,77.00
2023-01-06T22:36:08.376Z,76.72
2023-01-06T22:38:34.844Z,77.08
2023-01-06T22:41:01.436Z,77.19
2023-01-06T22:43:27.819Z,76.91
2023-01-06T22:45:56.561Z,77.11
2023-01-06T22:48:24.033Z,76.80
2023-01-06T22:51:02.089Z,76.77
2023-01-06T22:53:29.963Z,76.98
2023-01-06T22:56:15.020Z,76.94
2023-01-06T22:58:41.479Z,76.77
2023-01-06T23:01:08.697Z,77.18
2023-01-06T23:03:35.903Z,76.91
2023-01-06T23:06:05.375Z,77.16
2023-01-06T23:08:34.346Z,77.38
2023-01-06T23:11:03.532Z,76.80
2023-01-06T23:13:30.503Z,77.06
2023-01-06T23:16:04.907Z,76.50
2023-01-06T23:18:33.958Z,76.67
2023-01-06T23:21:03.464Z,76.45
2023-01-06T23:23:31.582Z,76.67
2023-01-06T23:26:01.687Z,76.30
2023-01-06T23:28:28.365Z,76.09
2023-01-06T23:31:01.140Z,76.05
2023-01-06T23:33:27.760Z,76.23
2023-01-06T23:35:54.097Z,76.80
2023-01-06T23:38:20.459Z,76.50
2023-01-06T23:40:46.903Z,76.79
2023-01-06T23:43:13.410Z,77.12
2023-01-06T23:45:39.900Z,76.17
2023-01-06T23:48:06.249Z,76.68
2023-01-06T23:50:32.856Z,76.72
2023-01-06T23:52:59.215Z,76.85
2023-01-06T23:55:25.609Z,77.26
2023-01-06T23:57:52.159Z,76.73
